Time;durP1;ratioP1;P1;durP2;ratioP2;P2;SDS_P1;SDS_P2;PMS_P1;PMS_P2;Temp;Humidity;BMP_temperature;BMP_pressure;BME280_temperature;BME280_humidity;BME280_pressure;Samples;Min_cycle;Max_cycle;Signal;HPM_P1;HPM_P2
2022/05/18 00:00:12;;;;;;;21.73;9.35;;;;;;;;;;5028825;28;96790;-72
2022/05/18 00:02:41;;;;;;;28.63;9.40;;;;;;;;;;4998532;28;96119;-72
2022/05/18 00:05:08;;;;;;;17.73;9.48;;;;;;;;;;5015521;28;95202;-74
2022/05/18 00:07:34;;;;;;;21.50;10.25;;;;;;;;;;5013663;28;97238;-73
2022/05/18 00:10:00;;;;;;;35.47;9.82;;;;;;;;;;5021759;28;95374;-73
2022/05/18 00:12:27;;;;;;;18.45;9.45;;;;;;;;;;5027468;28;97144;-74
2022/05/18 00:14:53;;;;;;;32.03;9.85;;;;;;;;;;5023404;27;97681;-73
2022/05/18 00:17:19;;;;;;;21.35;10.27;;;;;;;;;;5021676;27;95306;-73
2022/05/18 00:19:46;;;;;;;16.13;9.00;;;;;;;;;;5017604;28;96749;-73
2022/05/18 00:22:12;;;;;;;21.30;9.52;;;;;;;;;;5016505;28;97786;-73
2022/05/18 00:24:38;;;;;;;25.08;9.48;;;;;;;;;;5012503;28;95395;-73
2022/05/18 00:27:05;;;;;;;30.20;10.07;;;;;;;;;;4995212;28;96095;-75
2022/05/18 00:29:31;;;;;;;19.15;10.38;;;;;;;;;;5009397;28;95967;-72
2022/05/18 00:31:58;;;;;;;19.10;10.05;;;;;;;;;;5011384;28;96877;-73
2022/05/18 00:34:24;;;;;;;26.35;10.98;;;;;;;;;;5021865;28;98685;-72
2022/05/18 00:36:50;;;;;;;21.38;10.20;;;;;;;;;;5020753;28;95376;-74
2022/05/18 00:39:17;;;;;;;23.67;11.02;;;;;;;;;;5019990;28;96862;-72
2022/05/18 00:41:43;;;;;;;20.77;10.43;;;;;;;;;;5021413;28;96786;-73
2022/05/18 00:44:10;;;;;;;38.88;10.98;;;;;;;;;;5027381;27;95370;-73
2022/05/18 00:46:37;;;;;;;21.58;10.77;;;;;;;;;;5022916;28;97147;-73
2022/05/18 00:49:06;;;;;;;19.60;10.13;;;;;;;;;;5029539;27;95548;-75
2022/05/18 00:51:42;;;;;;;20.10;10.43;;;;;;;;;;5020272;28;96824;-74
2022/05/18 00:54:08;;;;;;;21.27;11.23;;;;;;;;;;5013937;28;97420;-72
2022/05/18 00:56:50;;;;;;;21.30;10.98;;;;;;;;;;5031493;28;95635;-74
2022/05/18 00:59:20;;;;;;;15.13;10.27;;;;;;;;;;5023077;28;98938;-75
2022/05/18 01:01:48;;;;;;;23.55;11.30;;;;;;;;;;5011629;28;97407;-76
2022/05/18 01:04:15;;;;;;;19.65;11.15;;;;;;;;;;5020218;28;95382;-75
2022/05/18 01:06:41;;;;;;;20.08;11.73;;;;;;;;;;5032016;28;96894;-75
2022/05/18 01:09:11;;;;;;;18.02;11.32;;;;;;;;;;5029948;27;97561;-73
2022/05/18 01:11:39;;;;;;;25.98;11.18;;;;;;;;;;5008174;28;96832;-75
2022/05/18 01:14:10;;;;;;;21.05;11.63;;;;;;;;;;5028819;28;97386;-74
2022/05/18 01:16:37;;;;;;;28.20;12.13;;;;;;;;;;5031671;28;95304;-76
2022/05/18 01:19:07;;;;;;;20.92;11.77;;;;;;;;;;5024039;28;97041;-74
2022/05/18 01:21:43;;;;;;;19.63;10.93;;;;;;;;;;5030586;28;96118;-75
2022/05/18 01:24:16;;;;;;;20.23;11.95;;;;;;;;;;5028882;27;95229;-75
2022/05/18 01:26:44;;;;;;;29.15;11.38;;;;;;;;;;5031972;27;97068;-75
2022/05/18 01:29:11;;;;;;;23.27;11.68;;;;;;;;;;5027874;28;97329;-75
2022/05/18 01:31:42;;;;;;;28.63;12.35;;;;;;;;;;5029437;27;95395;-74
2022/05/18 01:34:09;;;;;;;19.57;11.40;;;;;;;;;;5018004;28;97578;-72
2022/05/18 01:36:36;;;;;;;24.75;11.30;;;;;;;;;;5028452;28;95339;-72
2022/05/18 01:39:03;;;;;;;21.40;11.75;;;;;;;;;;5031636;27;96891;-72
2022/05/18 01:41:30;;;;;;;18.85;11.90;;;;;;;;;;5027400;27;97651;-72
2022/05/18 01:44:01;;;;;;;20.67;12.23;;;;;;;;;;5024215;27;96275;-72
2022/05/18 01:46:30;;;;;;;20.45;10.82;;;;;;;;;;5031858;27;96818;-72
2022/05/18 01:48:56;;;;;;;25.50;11.68;;;;;;;;;;5015430;28;97668;-72
2022/05/18 01:51:27;;;;;;;23.38;11.27;;;;;;;;;;5023536;28;95242;-72
2022/05/18 01:53:54;;;;;;;23.42;11.10;;;;;;;;;;5026428;27;96935;-72
2022/05/18 01:56:20;;;;;;;17.58;10.75;;;;;;;;;;5025026;28;95283;-72
2022/05/18 01:58:46;;;;;;;22.02;11.27;;;;;;;;;;5031533;27;96861;-72
2022/05/18 02:01:13;;;;;;;20.85;10.50;;;;;;;;;;5029213;27;96808;-73
2022/05/18 02:03:39;;;;;;;21.92;11.63;;;;;;;;;;5030440;27;95195;-72
2022/05/18 02:06:05;;;;;;;21.88;10.65;;;;;;;;;;5018241;28;97148;-75
2022/05/18 02:08:32;;;;;;;21.27;11.73;;;;;;;;;;5024395;28;97360;-73
2022/05/18 02:10:58;;;;;;;21.17;11.65;;;;;;;;;;5028981;28;95304;-75
2022/05/18 02:13:25;;;;;;;20.50;11.40;;;;;;;;;;5014950;27;97261;-74
2022/05/18 02:15:51;;;;;;;18.73;11.70;;;;;;;;;;5015586;28;96840;-72
2022/05/18 02:18:19;;;;;;;28.05;12.05;;;;;;;;;;5013174;28;97185;-73
2022/05/18 02:20:46;;;;;;;19.73;12.88;;;;;;;;;;5012380;28;97275;-72
2022/05/18 02:23:16;;;;;;;24.05;11.95;;;;;;;;;;5013528;28;95042;-72
2022/05/18 02:25:45;;;;;;;19.52;12.25;;;;;;;;;;5013060;28;96833;-72
2022/05/18 02:28:11;;;;;;;16.80;11.55;;;;;;;;;;5012558;28;97381;-76
2022/05/18 02:30:40;;;;;;;19.83;12.70;;;;;;;;;;5012552;28;95369;-75
2022/05/18 02:33:13;;;;;;;22.02;11.82;;;;;;;;;;5011236;28;96469;-73
2022/05/18 02:35:42;;;;;;;19.23;11.93;;;;;;;;;;5000080;28;96825;-73
2022/05/18 02:38:13;;;;;;;19.13;11.30;;;;;;;;;;5013221;28;96845;-73
2022/05/18 02:40:42;;;;;;;19.00;12.38;;;;;;;;;;5011769;28;97099;-72
2022/05/18 02:43:10;;;;;;;21.40;11.00;;;;;;;;;;5012725;28;95348;-76
2022/05/18 02:45:36;;;;;;;17.92;11.05;;;;;;;;;;5012430;28;96831;-75
2022/05/18 02:48:03;;;;;;;21.10;10.63;;;;;;;;;;5012722;28;97347;-73
2022/05/18 02:50:30;;;;;;;22.08;10.95;;;;;;;;;;5011687;28;95347;-75
2022/05/18 02:52:56;;;;;;;20.02;11.52;;;;;;;;;;5012995;28;96768;-72
2022/05/18 02:58:09;;;;;;;17.17;10.77;;;;;;;;;;5014107;28;95216;-73
2022/05/18 03:00:35;;;;;;;17.83;10.95;;;;;;;;;;5011806;28;97096;-72
2022/05/18 03:03:02;;;;;;;22.98;10.80;;;;;;;;;;5011930;28;95272;-72
2022/05/18 03:05:29;;;;;;;20.90;12.23;;;;;;;;;;5012144;28;95755;-74
2022/05/18 03:07:58;;;;;;;24.52;12.63;;;;;;;;;;5011982;28;97384;-75
2022/05/18 03:10:24;;;;;;;21.02;13.02;;;;;;;;;;5011876;28;95274;-72
2022/05/18 03:12:51;;;;;;;20.17;12.35;;;;;;;;;;5011707;28;96823;-71
2022/05/18 03:15:18;;;;;;;32.13;13.52;;;;;;;;;;5011894;28;97440;-71
2022/05/18 03:17:46;;;;;;;22.42;13.30;;;;;;;;;;5011669;28;95546;-73
2022/05/18 03:23:33;;;;;;;20.33;11.48;;;;;;;;;;5015102;28;96160;-72
2022/05/18 03:25:45;;;;;;;19.20;12.40;;;;;;;;;;4991533;28;96726;-72
2022/05/18 03:28:11;;;;;;;19.33;11.38;;;;;;;;;;4990851;28;97331;-73
2022/05/18 03:30:38;;;;;;;24.00;12.68;;;;;;;;;;4991502;28;95297;-77
2022/05/18 03:33:04;;;;;;;22.63;11.95;;;;;;;;;;4991659;28;96997;-73
2022/05/18 03:35:31;;;;;;;28.50;11.88;;;;;;;;;;4991313;28;97436;-73
2022/05/18 03:37:57;;;;;;;23.60;12.02;;;;;;;;;;5007503;28;95314;-75
2022/05/18 03:40:26;;;;;;;22.08;11.75;;;;;;;;;;5010230;28;96862;-75
2022/05/18 03:42:52;;;;;;;20.55;10.82;;;;;;;;;;5013493;28;96586;-73
2022/05/18 03:45:18;;;;;;;14.05;10.15;;;;;;;;;;5011089;28;96844;-75
2022/05/18 03:47:45;;;;;;;23.25;10.50;;;;;;;;;;5011322;28;97587;-75
2022/05/18 03:50:13;;;;;;;17.58;10.80;;;;;;;;;;5011794;28;95379;-77
2022/05/18 03:52:39;;;;;;;19.08;11.88;;;;;;;;;;5008682;28;97347;-75
2022/05/18 03:55:05;;;;;;;17.58;10.60;;;;;;;;;;5011639;28;95872;-76
2022/05/18 03:57:32;;;;;;;20.27;10.45;;;;;;;;;;5011206;28;95360;-77
2022/05/18 03:59:58;;;;;;;13.25;9.45;;;;;;;;;;5011163;28;96718;-76
2022/05/18 04:02:25;;;;;;;21.17;10.18;;;;;;;;;;5011132;28;97682;-76
2022/05/18 04:04:51;;;;;;;17.00;9.55;;;;;;;;;;5046662;27;97134;-76
2022/05/18 04:07:17;;;;;;;23.15;9.13;;;;;;;;;;5010907;28;97686;-73
2022/05/18 04:09:47;;;;;;;16.50;9.60;;;;;;;;;;5011566;28;95310;-75
2022/05/18 04:12:14;;;;;;;21.58;10.40;;;;;;;;;;5010552;28;96429;-73
2022/05/18 04:14:40;;;;;;;23.20;10.95;;;;;;;;;;5010809;28;96245;-74
2022/05/18 04:17:06;;;;;;;22.33;10.93;;;;;;;;;;5011445;28;95319;-74
2022/05/18 04:19:33;;;;;;;20.05;10.60;;;;;;;;;;5041784;27;96749;-73
2022/05/18 04:21:59;;;;;;;17.33;10.27;;;;;;;;;;5011125;28;97276;-74
2022/05/18 04:24:26;;;;;;;29.70;11.73;;;;;;;;;;5011490;28;95221;-73
2022/05/18 04:26:53;;;;;;;19.60;11.32;;;;;;;;;;5017720;28;96569;-74
2022/05/18 04:29:20;;;;;;;16.40;10.73;;;;;;;;;;5014000;28;95910;-73
2022/05/18 04:31:46;;;;;;;15.98;11.75;;;;;;;;;;5014831;28;96868;-74
2022/05/18 04:34:13;;;;;;;20.40;12.00;;;;;;;;;;5013503;28;97228;-73
2022/05/18 04:36:39;;;;;;;16.55;11.57;;;;;;;;;;5009646;28;97392;-72
2022/05/18 04:39:09;;;;;;;19.25;12.15;;;;;;;;;;5011779;28;97235;-72
2022/05/18 19:55:13;;;;;;;18.02;8.82;;;;;;;;;;5123007;27;95242;-75
2022/05/18 19:57:44;;;;;;;17.95;9.23;;;;;;;;;;5109058;27;97294;-75
2022/05/18 20:00:17;;;;;;;14.80;8.30;;;;;;;;;;5109537;27;95259;-73
2022/05/18 20:02:44;;;;;;;19.25;8.30;;;;;;;;;;5107982;27;96904;-76
2022/05/18 20:05:10;;;;;;;17.02;9.27;;;;;;;;;;5109697;27;97292;-76
2022/05/18 20:07:37;;;;;;;15.35;8.75;;;;;;;;;;5109857;27;95408;-75
2022/05/18 20:10:03;;;;;;;19.48;8.50;;;;;;;;;;5107064;27;96776;-75
2022/05/18 20:12:30;;;;;;;14.63;7.85;;;;;;;;;;5108616;27;97643;-74
2022/05/18 20:14:56;;;;;;;16.20;8.18;;;;;;;;;;5118402;27;96638;-76
2022/05/18 20:17:29;;;;;;;17.50;8.13;;;;;;;;;;5106182;27;97643;-74
2022/05/18 20:19:55;;;;;;;18.05;8.80;;;;;;;;;;5109123;27;96395;-72
2022/05/18 20:22:22;;;;;;;16.00;7.75;;;;;;;;;;5109036;27;96049;-73
2022/05/18 20:24:48;;;;;;;17.63;8.13;;;;;;;;;;5094319;27;99455;-73
2022/05/18 20:27:14;;;;;;;17.40;8.27;;;;;;;;;;5109580;27;95302;-75
2022/05/18 20:29:43;;;;;;;15.88;8.45;;;;;;;;;;5109517;27;97224;-75
2022/05/18 20:32:10;;;;;;;15.57;8.05;;;;;;;;;;5108037;27;97278;-74
2022/05/18 20:34:44;;;;;;;17.13;9.02;;;;;;;;;;5113964;27;96102;-75
2022/05/18 20:37:11;;;;;;;16.08;9.20;;;;;;;;;;5112631;27;96777;-75
2022/05/18 20:39:37;;;;;;;17.95;8.68;;;;;;;;;;5108619;27;95340;-74
2022/05/18 20:42:03;;;;;;;16.40;9.20;;;;;;;;;;5108979;27;95849;-76
2022/05/18 20:44:31;;;;;;;17.15;9.50;;;;;;;;;;5118357;27;97395;-76
2022/05/18 20:47:00;;;;;;;17.10;9.30;;;;;;;;;;5082122;27;95885;-76
2022/05/18 20:49:29;;;;;;;13.55;8.93;;;;;;;;;;5109005;27;96770;-72
2022/05/18 20:51:55;;;;;;;14.82;9.30;;;;;;;;;;5111983;27;97321;-76
2022/05/18 20:54:22;;;;;;;14.23;9.38;;;;;;;;;;5109067;27;95388;-76
2022/05/18 20:56:48;;;;;;;20.20;9.45;;;;;;;;;;5113609;27;96681;-75
2022/05/18 20:59:15;;;;;;;15.18;9.20;;;;;;;;;;5111103;27;97999;-73
2022/05/18 21:01:42;;;;;;;25.08;8.95;;;;;;;;;;5107406;27;97551;-74
2022/05/18 21:04:10;;;;;;;17.35;9.30;;;;;;;;;;5108247;27;96203;-74
2022/05/18 21:06:38;;;;;;;14.05;9.68;;;;;;;;;;5094160;27;96138;-74
2022/05/18 21:09:06;;;;;;;22.95;9.57;;;;;;;;;;5096792;27;97241;-74
2022/05/18 21:11:33;;;;;;;18.33;9.52;;;;;;;;;;5094450;27;97741;-75
2022/05/18 21:14:00;;;;;;;14.57;9.57;;;;;;;;;;5098447;27;95284;-72
2022/05/18 21:16:28;;;;;;;22.33;9.25;;;;;;;;;;5096715;27;96425;-72
2022/05/18 21:18:56;;;;;;;20.77;10.07;;;;;;;;;;5097015;27;97304;-72
2022/05/18 21:21:22;;;;;;;23.58;10.20;;;;;;;;;;5077809;27;96415;-74
2022/05/18 21:23:49;;;;;;;23.45;9.65;;;;;;;;;;5095114;27;97198;-73
2022/05/18 21:26:17;;;;;;;16.88;9.55;;;;;;;;;;5095253;27;95368;-73
2022/05/18 21:28:45;;;;;;;15.45;9.30;;;;;;;;;;5094898;27;96820;-75
2022/05/18 21:31:17;;;;;;;17.50;9.10;;;;;;;;;;5095356;27;97166;-74
2022/05/18 21:33:43;;;;;;;17.83;9.80;;;;;;;;;;5094679;27;95228;-74
2022/05/18 21:36:10;;;;;;;21.48;9.85;;;;;;;;;;5095548;27;97415;-75
2022/05/18 21:38:36;;;;;;;27.63;9.15;;;;;;;;;;5094729;27;97541;-75
2022/05/18 21:41:03;;;;;;;20.02;9.32;;;;;;;;;;5094391;27;95311;-73
2022/05/18 21:43:30;;;;;;;20.50;9.63;;;;;;;;;;5096503;27;96769;-73
2022/05/18 21:45:56;;;;;;;21.17;9.98;;;;;;;;;;5102724;27;95987;-75
2022/05/18 21:48:23;;;;;;;18.00;10.13;;;;;;;;;;5094030;27;97212;-74
2022/05/18 21:50:49;;;;;;;20.88;9.63;;;;;;;;;;5093874;27;97329;-77
2022/05/18 21:53:16;;;;;;;17.33;9.98;;;;;;;;;;5100029;27;95322;-74
2022/05/18 21:55:42;;;;;;;21.52;9.85;;;;;;;;;;5094059;27;97136;-73
2022/05/18 21:58:10;;;;;;;14.68;9.00;;;;;;;;;;5094995;27;97337;-76
2022/05/18 22:00:37;;;;;;;20.67;9.18;;;;;;;;;;5095109;27;95369;-76
2022/05/18 22:03:06;;;;;;;16.80;9.40;;;;;;;;;;5093571;27;97185;-75
2022/05/18 22:05:32;;;;;;;18.90;8.85;;;;;;;;;;5097701;27;95353;-76
2022/05/18 22:07:59;;;;;;;15.38;9.20;;;;;;;;;;5094719;27;96780;-73
2022/05/18 22:10:26;;;;;;;18.20;9.25;;;;;;;;;;5093562;27;97442;-72
2022/05/18 22:12:53;;;;;;;20.27;9.52;;;;;;;;;;5094378;27;95293;-72
2022/05/18 22:15:20;;;;;;;20.52;10.73;;;;;;;;;;5096018;27;96822;-72
2022/05/18 22:17:48;;;;;;;18.50;9.57;;;;;;;;;;5093550;27;96948;-73
2022/05/18 22:20:17;;;;;;;15.57;9.77;;;;;;;;;;5095262;27;95362;-72
2022/05/18 22:22:44;;;;;;;17.92;9.65;;;;;;;;;;5094591;27;96869;-72
2022/05/18 22:25:10;;;;;;;15.40;9.60;;;;;;;;;;5096637;27;96881;-73
2022/05/18 22:27:37;;;;;;;21.80;10.00;;;;;;;;;;5094711;27;96849;-72
2022/05/18 22:30:06;;;;;;;19.48;10.05;;;;;;;;;;5075123;27;97518;-72
2022/05/18 22:32:32;;;;;;;18.05;10.15;;;;;;;;;;5094026;27;95137;-72
2022/05/18 22:34:59;;;;;;;18.77;10.15;;;;;;;;;;5093828;27;96852;-73
2022/05/18 22:37:26;;;;;;;17.00;9.80;;;;;;;;;;5092839;27;97331;-72
2022/05/18 22:39:52;;;;;;;14.70;9.88;;;;;;;;;;5094921;27;95302;-75
2022/05/18 22:42:22;;;;;;;17.38;9.15;;;;;;;;;;5095703;27;96776;-76
2022/05/18 22:44:49;;;;;;;19.23;9.55;;;;;;;;;;5093358;27;97358;-72
2022/05/18 22:47:35;;;;;;;14.02;9.05;;;;;;;;;;5097267;27;95225;-74
2022/05/18 22:50:14;;;;;;;18.70;9.77;;;;;;;;;;5094533;27;97200;-72
2022/05/18 22:52:41;;;;;;;16.15;9.13;;;;;;;;;;5087494;27;95198;-72
2022/05/18 22:55:07;;;;;;;18.80;8.77;;;;;;;;;;5095301;27;96916;-72
2022/05/18 22:57:34;;;;;;;19.50;9.88;;;;;;;;;;5094149;27;97245;-72
2022/05/18 23:00:00;;;;;;;15.02;9.10;;;;;;;;;;5093612;27;97011;-72
2022/05/18 23:02:27;;;;;;;15.70;9.98;;;;;;;;;;5093432;27;97556;-72
2022/05/18 23:04:54;;;;;;;27.40;9.20;;;;;;;;;;5092979;27;97640;-72
2022/05/18 23:07:21;;;;;;;20.52;10.20;;;;;;;;;;5093697;27;96027;-73
2022/05/18 23:09:47;;;;;;;19.42;10.55;;;;;;;;;;5096367;27;96501;-72
2022/05/18 23:12:13;;;;;;;21.52;10.52;;;;;;;;;;5097312;27;96400;-73
2022/05/18 23:14:40;;;;;;;23.88;10.38;;;;;;;;;;5092859;27;97228;-72
2022/05/18 23:17:08;;;;;;;22.40;10.40;;;;;;;;;;5092315;27;96294;-72
2022/05/18 23:19:35;;;;;;;19.50;10.35;;;;;;;;;;5091863;27;95230;-72
2022/05/18 23:22:01;;;;;;;18.02;10.18;;;;;;;;;;5091600;27;96706;-72
2022/05/18 23:24:27;;;;;;;15.35;10.32;;;;;;;;;;5092259;27;97649;-73
2022/05/18 23:26:54;;;;;;;16.13;10.40;;;;;;;;;;5092829;27;96141;-73
2022/05/18 23:29:20;;;;;;;16.88;10.32;;;;;;;;;;5092523;27;96748;-73
2022/05/18 23:31:48;;;;;;;22.63;11.75;;;;;;;;;;5095697;27;96999;-73
2022/05/18 23:34:15;;;;;;;16.17;10.80;;;;;;;;;;5092477;27;96729;-76
2022/05/18 23:36:41;;;;;;;17.23;10.85;;;;;;;;;;5092846;27;97116;-73
2022/05/18 23:39:07;;;;;;;21.65;10.70;;;;;;;;;;5073841;27;95201;-73
2022/05/18 23:41:34;;;;;;;19.63;11.65;;;;;;;;;;5091904;27;96623;-74
2022/05/18 23:44:00;;;;;;;19.40;11.02;;;;;;;;;;5093034;27;97223;-73
2022/05/18 23:46:29;;;;;;;18.05;11.77;;;;;;;;;;5092368;27;95875;-75
2022/05/18 23:48:57;;;;;;;17.90;11.70;;;;;;;;;;5094510;27;97168;-75
2022/05/18 23:51:29;;;;;;;21.20;11.93;;;;;;;;;;5092411;27;97079;-75
2022/05/18 23:53:56;;;;;;;21.27;12.02;;;;;;;;;;5095375;27;95266;-76
2022/05/18 23:56:25;;;;;;;21.45;11.50;;;;;;;;;;5091670;27;97495;-74
2022/05/18 23:58:54;;;;;;;17.23;11.70;;;;;;;;;;5091836;27;95529;-73
